createdAt,value
2022-08-05T00:01:51.575Z,49.64
2022-08-05T00:04:21.116Z,50.06
2022-08-05T00:06:51.713Z,48.99
2022-08-05T00:09:20.495Z,50.41
2022-08-05T00:11:56.195Z,52.16
2022-08-05T00:14:31.420Z,50.21
2022-08-05T00:17:01.898Z,54.40
2022-08-05T00:19:33.573Z,53.43
2022-08-05T00:22:03.385Z,54.94
2022-08-05T00:24:32.840Z,56.44
2022-08-05T00:27:04.734Z,52.80
2022-08-05T00:29:39.071Z,54.29
2022-08-05T00:32:13.039Z,57.07
2022-08-05T00:35:04.002Z,59.00
2022-08-05T00:37:50.926Z,59.96
2022-08-05T00:40:27.439Z,61.35
2022-08-05T00:42:59.870Z,63.37
2022-08-05T00:45:42.884Z,61.94
2022-08-05T00:48:15.835Z,64.46
2022-08-05T00:50:46.979Z,63.85
2022-08-05T00:54:00.738Z,63.34
2022-08-05T00:56:08.208Z,62.35
2022-08-05T00:58:37.193Z,62.06
2022-08-05T01:01:08.945Z,61.08
2022-08-05T01:03:38.838Z,64.15
2022-08-05T01:06:11.271Z,62.30
2022-08-05T01:08:44.839Z,63.39
2022-08-05T01:11:36.956Z,63.67
2022-08-05T01:14:18.264Z,63.66
2022-08-05T01:17:40.306Z,63.46
2022-08-05T01:20:39.505Z,65.04
2022-08-05T01:23:14.570Z,63.54
2022-08-05T01:25:57.861Z,63.27
2022-08-05T01:29:05.388Z,62.42
2022-08-05T01:31:48.603Z,64.02
2022-08-05T01:34:27.061Z,59.17
2022-08-05T01:37:18.023Z,60.76
2022-08-05T01:39:58.985Z,60.13
2022-08-05T01:42:29.873Z,60.81
2022-08-05T01:45:02.055Z,59.77
2022-08-05T01:47:39.298Z,57.78
2022-08-05T01:50:36.364Z,61.51
2022-08-05T01:53:10.249Z,61.22
2022-08-05T01:55:44.237Z,63.07
2022-08-05T01:58:15.705Z,64.76
2022-08-05T02:00:50.484Z,64.52
2022-08-05T02:03:31.735Z,68.33
2022-08-05T02:06:33.259Z,65.96
2022-08-05T02:08:59.019Z,64.99
2022-08-05T02:11:48.110Z,62.57
2022-08-05T02:14:43.253Z,63.84
2022-08-05T02:18:30.854Z,61.22
2022-08-05T02:20:30.185Z,65.60
2022-08-05T02:23:05.812Z,62.17
2022-08-05T02:25:49.061Z,62.80
2022-08-05T02:28:32.170Z,63.36
2022-08-05T02:31:15.889Z,64.49
2022-08-05T02:33:57.224Z,62.48
2022-08-05T02:36:31.400Z,65.53
2022-08-05T02:39:08.646Z,63.17
2022-08-05T02:41:57.815Z,61.88
2022-08-05T02:44:28.397Z,63.37
2022-08-05T02:47:00.685Z,63.83
2022-08-05T02:49:37.065Z,67.16
2022-08-05T02:52:30.167Z,66.56
2022-08-05T02:55:05.110Z,63.18
2022-08-05T02:58:11.928Z,62.92
2022-08-05T03:00:29.165Z,62.85
2022-08-05T03:02:59.180Z,65.02
2022-08-05T03:06:55.220Z,63.39
2022-08-05T03:08:31.506Z,66.78
2022-08-05T03:11:53.837Z,69.78
2022-08-05T03:13:52.187Z,71.60
2022-08-05T03:16:31.644Z,67.56
2022-08-05T03:19:01.334Z,66.91
2022-08-05T03:21:41.371Z,70.60
2022-08-05T03:24:29.225Z,69.38
2022-08-05T03:26:59.274Z,68.16
2022-08-05T03:29:45.959Z,65.83
2022-08-05T03:32:17.203Z,65.70
2022-08-05T03:34:50.978Z,65.52
2022-08-05T03:37:21.221Z,64.17
2022-08-05T03:40:01.670Z,65.13
2022-08-05T03:42:33.166Z,65.37
2022-08-05T03:45:21.647Z,65.54
2022-08-05T03:47:51.765Z,66.37
2022-08-05T03:50:53.941Z,68.43
2022-08-05T03:55:54.207Z,67.80
2022-08-05T03:56:46.405Z,69.34
2022-08-05T03:59:26.133Z,70.38
2022-08-05T04:01:59.341Z,67.50
2022-08-05T04:04:27.997Z,66.85
2022-08-05T04:06:56.588Z,66.77
2022-08-05T04:09:26.396Z,67.37
2022-08-05T04:11:56.701Z,65.98
2022-08-05T04:14:30.663Z,67.95
2022-08-05T04:17:00.629Z,67.15
2022-08-05T04:19:29.725Z,67.67
2022-08-05T04:22:09.850Z,67.32
2022-08-05T04:24:53.035Z,66.51
2022-08-05T04:27:41.689Z,62.75
2022-08-05T04:30:10.517Z,64.61
2022-08-05T04:32:38.989Z,62.09
2022-08-05T04:35:17.518Z,61.24
2022-08-05T04:38:01.577Z,62.70
2022-08-05T04:40:37.963Z,65.55
2022-08-05T04:43:16.564Z,64.18
2022-08-05T04:45:48.194Z,62.60
2022-08-05T04:48:27.054Z,62.10
2022-08-05T04:51:03.513Z,63.52
2022-08-05T04:53:40.157Z,63.19
2022-08-05T04:56:32.790Z,65.71
2022-08-05T04:58:57.184Z,64.65
2022-08-05T05:02:06.002Z,66.20
2022-08-05T05:04:13.781Z,64.03
2022-08-05T05:06:49.209Z,64.75
2022-08-05T05:09:20.655Z,66.75
2022-08-05T05:11:53.094Z,70.08
2022-08-05T05:14:27.983Z,72.39
2022-08-05T05:17:00.969Z,72.47
2022-08-05T05:19:36.324Z,69.91
2022-08-05T05:22:24.396Z,69.53
2022-08-05T05:24:58.186Z,73.62
2022-08-05T05:27:45.682Z,70.32
2022-08-05T05:30:29.212Z,72.80
2022-08-05T05:33:03.512Z,70.17
2022-08-05T05:35:42.442Z,70.97
2022-08-05T05:38:13.682Z,70.22
2022-08-05T05:40:48.277Z,68.16
2022-08-05T05:43:27.851Z,68.62
2022-08-05T05:46:15.776Z,67.68
2022-08-05T05:48:47.822Z,67.04
2022-08-05T05:51:24.426Z,68.74
2022-08-05T05:54:19.709Z,68.62
2022-08-05T05:56:49.331Z,65.67
2022-08-05T05:59:18.411Z,65.42
2022-08-05T06:01:57.791Z,65.71
2022-08-05T06:04:26.584Z,64.46
2022-08-05T06:07:02.137Z,66.93
2022-08-05T06:09:51.400Z,66.61
2022-08-05T06:12:18.746Z,67.74
2022-08-05T06:14:47.965Z,67.14
2022-08-05T06:17:22.076Z,65.69
2022-08-05T06:19:57.174Z,66.74
2022-08-05T06:22:34.245Z,67.19
2022-08-05T06:25:59.279Z,68.65
2022-08-05T06:28:11.135Z,67.48
2022-08-05T06:30:44.635Z,66.20
2022-08-05T06:33:19.208Z,67.10
2022-08-05T06:36:07.602Z,66.23
2022-08-05T06:38:40.496Z,68.11
2022-08-05T06:41:15.434Z,68.23
2022-08-05T06:43:58.516Z,67.98
2022-08-05T06:46:30.111Z,67.90
2022-08-05T06:49:01.128Z,66.47
2022-08-05T06:51:31.730Z,66.81
2022-08-05T06:54:03.273Z,68.33
2022-08-05T06:56:33.903Z,68.63
2022-08-05T06:59:09.533Z,68.83
2022-08-05T07:01:40.680Z,72.99
2022-08-05T07:04:10.980Z,74.58
2022-08-05T07:06:42.533Z,77.17
2022-08-05T07:09:10.846Z,77.89
2022-08-05T07:11:39.799Z,74.19
2022-08-05T07:14:29.649Z,71.59
2022-08-05T07:17:58.189Z,70.06
2022-08-05T07:22:41.936Z,70.49
2022-08-05T07:25:23.377Z,69.43
2022-08-05T07:28:06.057Z,69.04
2022-08-05T07:30:44.468Z,69.87
2022-08-05T07:33:21.303Z,68.99
2022-08-05T07:36:20.609Z,68.83
2022-08-05T07:38:54.771Z,68.46
2022-08-05T07:42:14.193Z,69.90
2022-08-05T07:44:19.124Z,70.16
2022-08-05T07:46:49.708Z,68.38
2022-08-05T07:49:19.538Z,68.33
2022-08-05T07:51:53.373Z,69.49
2022-08-05T07:54:31.619Z,69.82
2022-08-05T07:57:22.754Z,68.29
2022-08-05T07:59:53.605Z,68.60
2022-08-05T08:02:31.392Z,67.27
2022-08-05T08:05:16.409Z,66.19
2022-08-05T08:08:00.256Z,68.42
2022-08-05T08:10:30.228Z,66.64
2022-08-05T08:12:58.957Z,67.85
2022-08-05T08:15:37.219Z,67.98
2022-08-05T08:18:15.670Z,68.68
2022-08-05T08:21:01.918Z,67.76
2022-08-05T08:24:03.014Z,68.31
2022-08-05T08:26:27.087Z,68.45
2022-08-05T08:29:21.900Z,68.64
2022-08-05T08:31:48.550Z,74.31
2022-08-05T08:34:19.004Z,70.86
2022-08-05T08:37:05.556Z,68.87
2022-08-05T08:39:37.643Z,66.94
2022-08-05T08:42:32.373Z,73.21
2022-08-05T08:45:24.058Z,70.50
2022-08-05T08:48:07.319Z,68.46
2022-08-05T08:51:03.284Z,71.30
2022-08-05T08:53:55.110Z,68.24
2022-08-05T08:56:27.161Z,67.03
2022-08-05T08:58:59.200Z,69.74
2022-08-05T09:01:28.795Z,67.88
2022-08-05T09:03:58.500Z,68.24
2022-08-05T09:06:29.812Z,70.56
2022-08-05T09:09:01.403Z,68.60
2022-08-05T09:11:51.176Z,71.70
2022-08-05T09:14:58.978Z,76.57
2022-08-05T09:17:16.176Z,72.43
2022-08-05T09:20:05.032Z,70.34
2022-08-05T09:23:19.948Z,69.24
2022-08-05T09:26:06.171Z,71.09
2022-08-05T09:28:37.641Z,69.70
2022-08-05T09:32:38.797Z,73.31
2022-08-05T09:34:07.829Z,74.79
2022-08-05T09:36:59.321Z,73.00
2022-08-05T09:39:44.932Z,72.20
2022-08-05T09:42:24.474Z,71.77
2022-08-05T09:45:17.570Z,71.48
2022-08-05T09:47:55.130Z,70.21
2022-08-05T09:50:43.567Z,68.35
2022-08-05T09:53:22.670Z,68.09
2022-08-05T09:56:11.381Z,67.40
2022-08-05T09:58:41.983Z,65.26
2022-08-05T10:01:22.451Z,65.49
2022-08-05T10:04:10.581Z,66.30
2022-08-05T10:06:58.916Z,67.57
2022-08-05T10:09:29.427Z,65.30
2022-08-05T10:12:31.358Z,65.04
2022-08-05T10:15:20.294Z,65.69
2022-08-05T10:18:14.006Z,64.61
2022-08-05T10:20:55.919Z,64.13
2022-08-05T10:23:59.688Z,63.06
2022-08-05T10:26:32.735Z,64.83
2022-08-05T10:29:02.487Z,65.59
2022-08-05T10:32:51.846Z,64.02
2022-08-05T10:34:19.689Z,64.79
2022-08-05T10:36:54.444Z,64.44
2022-08-05T10:40:04.305Z,63.30
2022-08-05T10:42:33.364Z,63.54
2022-08-05T10:45:21.025Z,62.68
2022-08-05T10:48:29.270Z,59.01
2022-08-05T10:51:29.325Z,63.74
2022-08-05T10:54:05.847Z,62.17
2022-08-05T10:56:55.942Z,60.63
2022-08-05T11:00:04.080Z,58.65
2022-08-05T11:02:38.519Z,58.56
2022-08-05T11:05:11.751Z,57.48
2022-08-05T11:08:12.763Z,55.68
2022-08-05T11:11:44.366Z,56.34
2022-08-05T11:17:59.039Z,56.00
2022-08-05T11:20:44.276Z,55.04
2022-08-05T11:24:14.807Z,54.60
2022-08-05T11:27:45.789Z,54.98
2022-08-05T11:30:19.241Z,53.21
2022-08-05T11:32:47.886Z,53.34
2022-08-05T11:36:07.905Z,51.96
2022-08-05T11:39:01.128Z,50.16
2022-08-05T11:41:56.403Z,50.50
2022-08-05T11:44:53.306Z,48.32
2022-08-05T11:47:15.207Z,50.30
2022-08-05T11:49:50.885Z,50.12
2022-08-05T11:52:31.195Z,49.30
2022-08-05T11:55:07.465Z,50.01
2022-08-05T11:58:09.650Z,51.62
2022-08-05T12:00:37.992Z,49.94
2022-08-05T12:03:28.610Z,49.06
2022-08-05T12:06:06.139Z,49.47
2022-08-05T12:08:50.889Z,49.67
2022-08-05T12:11:22.304Z,45.97
2022-08-05T12:14:16.976Z,45.32
2022-08-05T12:16:52.019Z,45.02
2022-08-05T12:20:17.169Z,43.76
2022-08-05T12:22:12.688Z,44.34
2022-08-05T12:24:50.513Z,43.95
2022-08-05T12:27:32.780Z,42.80
2022-08-05T12:30:15.249Z,41.89
2022-08-05T12:32:53.585Z,42.22
2022-08-05T12:35:24.852Z,42.46
2022-08-05T12:38:07.755Z,43.02
2022-08-05T12:40:39.635Z,42.99
2022-08-05T12:43:12.581Z,43.08
2022-08-05T12:45:58.905Z,45.09
2022-08-05T12:48:39.774Z,45.62
2022-08-05T12:52:10.378Z,46.71
2022-08-05T12:54:16.773Z,48.13
2022-08-05T12:56:54.558Z,48.14
2022-08-05T13:00:08.845Z,49.08
2022-08-05T13:02:30.276Z,50.15
2022-08-05T13:04:59.168Z,48.69
2022-08-05T13:07:57.357Z,48.93
2022-08-05T13:10:19.745Z,48.62
2022-08-05T13:12:57.724Z,48.16
2022-08-05T13:15:36.076Z,48.61
2022-08-05T13:18:10.482Z,47.15
2022-08-05T13:20:40.424Z,46.45
2022-08-05T13:23:33.584Z,44.14
2022-08-05T13:26:03.537Z,40.64
2022-08-05T13:28:32.199Z,36.60
2022-08-05T13:31:03.387Z,35.19
2022-08-05T13:34:22.683Z,32.77
2022-08-05T13:36:30.736Z,34.48
2022-08-05T13:39:08.400Z,34.05
2022-08-05T13:41:51.858Z,33.95
2022-08-05T13:44:21.499Z,35.17
2022-08-05T13:47:04.548Z,37.57
2022-08-05T13:49:36.764Z,38.75
2022-08-05T13:52:29.031Z,40.74
2022-08-05T13:54:58.415Z,41.56
2022-08-05T13:57:50.952Z,42.61
2022-08-05T14:00:27.469Z,42.56
2022-08-05T14:03:01.108Z,41.81
2022-08-05T14:06:08.250Z,39.81
2022-08-05T14:08:21.430Z,37.04
2022-08-05T14:11:03.361Z,35.82
2022-08-05T14:13:48.166Z,37.98
2022-08-05T14:16:42.526Z,36.66
2022-08-05T14:19:12.198Z,35.51
2022-08-05T14:22:09.337Z,35.32
2022-08-05T14:24:29.403Z,35.41
2022-08-05T14:27:17.773Z,33.15
2022-08-05T14:29:51.258Z,34.05
2022-08-05T14:32:26.837Z,31.30
2022-08-05T14:34:56.731Z,30.30
2022-08-05T14:37:45.204Z,29.92
2022-08-05T14:40:17.034Z,30.56
2022-08-05T14:42:45.508Z,27.13
2022-08-05T14:45:13.721Z,27.13
2022-08-05T14:48:02.947Z,25.48
2022-08-05T14:50:31.996Z,100.00
2022-08-05T14:53:00.815Z,100.00
2022-08-05T14:55:39.407Z,25.48
2022-08-05T14:58:12.162Z,100.00
2022-08-05T15:00:58.187Z,100.00
2022-08-05T15:03:33.563Z,100.00
2022-08-05T15:06:13.067Z,100.00
2022-08-05T15:09:01.404Z,100.00
2022-08-05T15:11:51.828Z,100.00
2022-08-05T15:14:34.595Z,100.00
2022-08-05T15:17:44.646Z,100.00
2022-08-05T15:19:59.138Z,100.00
2022-08-05T15:22:28.213Z,100.00
2022-08-05T15:24:58.995Z,25.48
2022-08-05T15:27:32.761Z,19.45
2022-08-05T15:30:05.367Z,19.31
2022-08-05T15:32:33.991Z,19.72
2022-08-05T15:35:04.172Z,19.68
2022-08-05T15:38:32.741Z,20.55
2022-08-05T15:40:59.325Z,21.78
2022-08-05T15:43:20.591Z,21.12
2022-08-05T15:46:00.638Z,20.22
2022-08-05T15:48:30.102Z,21.17
2022-08-05T15:51:01.519Z,21.53
2022-08-05T15:53:38.552Z,22.19
2022-08-05T15:56:20.769Z,23.95
2022-08-05T15:58:49.490Z,22.98
2022-08-05T16:01:18.815Z,21.68
2022-08-05T16:03:50.443Z,22.19
2022-08-05T16:06:22.923Z,21.95
2022-08-05T16:08:53.585Z,22.54
2022-08-05T16:11:43.150Z,21.42
2022-08-05T16:14:17.431Z,21.73
2022-08-05T16:16:47.102Z,21.55
2022-08-05T16:19:25.906Z,22.62
2022-08-05T16:22:04.812Z,24.27
2022-08-05T16:24:40.975Z,24.02
2022-08-05T16:27:15.939Z,24.01
2022-08-05T16:29:50.843Z,24.30
2022-08-05T16:32:23.187Z,23.94
2022-08-05T16:34:59.452Z,23.66
2022-08-05T16:38:02.549Z,24.14
2022-08-05T16:40:26.612Z,23.74
2022-08-05T16:42:57.674Z,23.25
2022-08-05T16:46:07.434Z,22.74
2022-08-05T16:48:25.323Z,22.89
2022-08-05T16:50:54.743Z,22.99
2022-08-05T16:53:32.178Z,23.05
2022-08-05T16:56:01.140Z,23.05
2022-08-05T16:58:30.196Z,23.23
2022-08-05T17:00:58.520Z,23.77
2022-08-05T17:03:27.627Z,24.52
2022-08-05T17:05:59.353Z,23.82
2022-08-05T17:08:36.088Z,24.05
2022-08-05T17:11:17.379Z,24.19
2022-08-05T17:13:46.273Z,24.24
2022-08-05T17:16:35.787Z,24.77
2022-08-05T17:19:03.059Z,24.05
2022-08-05T17:21:37.310Z,23.34
2022-08-05T17:24:30.375Z,23.45
2022-08-05T17:26:58.177Z,23.30
2022-08-05T17:29:33.313Z,23.19
2022-08-05T17:32:11.655Z,23.63
2022-08-05T17:34:49.201Z,24.42
2022-08-05T17:37:40.743Z,23.73
2022-08-05T17:40:14.104Z,23.54
2022-08-05T17:42:51.439Z,23.28
2022-08-05T17:45:24.743Z,23.33
2022-08-05T17:47:58.376Z,24.46
2022-08-05T17:50:30.400Z,24.31
2022-08-05T17:53:04.631Z,24.78
2022-08-05T17:55:38.044Z,24.02
2022-08-05T17:58:14.405Z,24.45
2022-08-05T18:00:50.665Z,24.53
2022-08-05T18:06:11.829Z,25.19
2022-08-05T18:08:52.497Z,25.65
2022-08-05T18:11:23.953Z,26.65
2022-08-05T18:13:59.726Z,26.19
2022-08-05T18:16:28.256Z,27.23
2022-08-05T18:19:00.684Z,27.78
2022-08-05T18:22:08.420Z,28.56
2022-08-05T18:24:17.413Z,28.95
2022-08-05T18:26:45.983Z,28.96
2022-08-05T18:29:16.896Z,29.18
2022-08-05T18:31:45.392Z,29.77
2022-08-05T18:34:13.697Z,29.99
2022-08-05T18:36:43.616Z,30.03
2022-08-05T18:39:42.399Z,30.43
2022-08-05T18:42:06.238Z,30.14
2022-08-05T18:44:51.533Z,30.97
2022-08-05T18:47:27.101Z,31.11
2022-08-05T18:50:15.685Z,31.22
2022-08-05T18:52:51.038Z,31.82
2022-08-05T18:55:21.451Z,31.77
2022-08-05T18:57:53.816Z,32.48
2022-08-05T19:00:27.224Z,32.75
2022-08-05T19:03:04.289Z,32.35
2022-08-05T19:06:13.327Z,32.69
2022-08-05T19:08:30.278Z,33.26
2022-08-05T19:10:59.698Z,33.35
2022-08-05T19:13:35.959Z,33.26
2022-08-05T19:16:25.447Z,33.03
2022-08-05T19:18:56.792Z,33.64
2022-08-05T19:21:27.559Z,34.02
2022-08-05T19:24:07.723Z,33.96
2022-08-05T19:26:43.853Z,35.21
2022-08-05T19:29:35.769Z,35.53
2022-08-05T19:32:11.546Z,34.32
2022-08-05T19:34:40.560Z,34.48
2022-08-05T19:37:11.436Z,35.77
2022-08-05T19:39:45.931Z,35.84
2022-08-05T19:42:34.896Z,34.94
2022-08-05T19:45:07.011Z,36.41
2022-08-05T19:47:40.159Z,38.04
2022-08-05T19:50:12.033Z,36.89
2022-08-05T19:52:41.080Z,36.01
2022-08-05T19:56:14.546Z,35.15
2022-08-05T19:58:14.679Z,35.94
2022-08-05T20:00:47.063Z,35.46
2022-08-05T20:03:15.971Z,36.15
2022-08-05T20:05:51.373Z,35.26
2022-08-05T20:08:20.656Z,36.31
2022-08-05T20:10:53.714Z,36.76
2022-08-05T20:13:54.886Z,37.61
2022-08-05T20:16:11.961Z,38.76
2022-08-05T20:18:40.328Z,38.05
2022-08-05T20:21:25.380Z,37.60
2022-08-05T20:23:53.608Z,37.76
2022-08-05T20:26:25.279Z,36.99
2022-08-05T20:29:00.782Z,36.94
2022-08-05T20:31:42.169Z,36.91
2022-08-05T20:34:18.360Z,37.29
2022-08-05T20:36:48.510Z,36.80
2022-08-05T20:39:18.333Z,36.60
2022-08-05T20:41:47.865Z,37.11
2022-08-05T20:44:29.652Z,37.03
2022-08-05T20:47:03.974Z,37.35
2022-08-05T20:49:39.276Z,39.94
2022-08-05T20:52:08.846Z,38.39
2022-08-05T20:54:43.329Z,38.60
2022-08-05T20:57:43.560Z,40.85
2022-08-05T21:00:40.682Z,41.03
2022-08-05T21:03:06.979Z,41.01
2022-08-05T21:05:54.286Z,42.61
2022-08-05T21:08:26.604Z,40.23
2022-08-05T21:10:58.447Z,100.00
2022-08-05T21:13:55.632Z,40.43
2022-08-05T21:16:20.532Z,43.33
2022-08-05T21:18:51.308Z,43.18
2022-08-05T21:21:19.617Z,41.79
2022-08-05T21:23:52.928Z,41.18
2022-08-05T21:26:21.150Z,42.11
2022-08-05T21:28:54.761Z,40.78
2022-08-05T21:31:41.361Z,41.86
2022-08-05T21:34:10.515Z,40.31
2022-08-05T21:36:39.493Z,42.16
2022-08-05T21:39:14.277Z,42.19
2022-08-05T21:41:52.415Z,41.15
2022-08-05T21:44:26.789Z,41.77
2022-08-05T21:46:58.318Z,42.47
2022-08-05T21:49:58.747Z,40.98
2022-08-05T21:52:27.522Z,42.33
2022-08-05T21:55:06.266Z,41.28
2022-08-05T21:57:36.030Z,42.86
2022-08-05T22:00:11.794Z,41.61
2022-08-05T22:02:43.641Z,42.17
2022-08-05T22:05:12.870Z,42.75
2022-08-05T22:08:08.007Z,42.68
2022-08-05T22:11:00.629Z,44.63
2022-08-05T22:14:05.897Z,46.95
2022-08-05T22:16:41.463Z,47.81
2022-08-05T22:19:15.144Z,46.11
2022-08-05T22:21:57.862Z,44.53
2022-08-05T22:24:52.414Z,44.21
2022-08-05T22:28:09.298Z,45.20
2022-08-05T22:30:32.473Z,45.88
2022-08-05T22:33:15.521Z,43.66
2022-08-05T22:35:48.936Z,43.03
2022-08-05T22:38:18.864Z,43.52
2022-08-05T22:40:49.418Z,43.36
2022-08-05T22:43:36.243Z,42.84
2022-08-05T22:46:13.192Z,47.21
2022-08-05T22:48:43.172Z,44.44
2022-08-05T22:51:15.722Z,46.81
2022-08-05T22:53:44.041Z,44.34
2022-08-05T22:56:30.239Z,43.57
2022-08-05T22:59:03.209Z,43.38
2022-08-05T23:02:04.454Z,42.64
2022-08-05T23:04:35.471Z,41.83
2022-08-05T23:07:04.371Z,41.18
2022-08-05T23:09:58.004Z,43.11
2022-08-05T23:12:24.477Z,42.69
2022-08-05T23:14:52.906Z,44.01
2022-08-05T23:17:24.276Z,42.71
2022-08-05T23:20:02.292Z,42.94
2022-08-05T23:22:31.339Z,41.77
2022-08-05T23:24:59.818Z,43.08
2022-08-05T23:27:28.868Z,46.38
2022-08-05T23:30:00.888Z,46.06
2022-08-05T23:32:30.777Z,45.05
2022-08-05T23:34:59.800Z,46.63
2022-08-05T23:37:34.188Z,47.62
2022-08-05T23:40:07.444Z,45.29
2022-08-05T23:42:38.101Z,46.08
2022-08-05T23:45:14.159Z,44.97
2022-08-05T23:47:48.256Z,44.01
2022-08-05T23:50:20.307Z,45.48
2022-08-05T23:52:51.492Z,43.35
2022-08-05T23:55:22.164Z,48.63
2022-08-05T23:57:53.035Z,44.75
